Aérodrome :
LOGIN :

S'inscrire | Disclaimer

   EN    FR    IT 

 










Légende :    VFR   VFR Marginal   IFR   IFR Intensif   IFR Très Intensif
Visi : 
Plafond : 
>= 8 km
>= 3000ft
5 à 8 km
1000 à 3000 ft
1500m à 5 km
500 à 1000 ft
800 à 1500m
200 à 500 ft
< 800m
< 200 ft
Symboles :   Orages  Brouillard  Fortes neiges  Fortes précipitations  Vent > 20 kt
SIGMETs :   Divers  Orages  Givrage  Turbulence  Onde Orograph.  Cendres Volcan.







- Altitude de l'aérodrome : 15 ft
- Code IATA : FCO


LIRF - Roma Leonardo da Vinci Fiumicino

DERNIER METAR :
  • 240950Z 19006KT 150V230 9999 FEW015 21/14 Q1020 NOSIG

METARs EXPIRÉS :
  • 240920Z 17005KT 110V210 9999 FEW015 21/15 Q1020 NOSIG
  • 240850Z 15005KT 070V200 9999 FEW015 21/16 Q1020 NOSIG
  • 240820Z 14006KT 8000 FEW010 20/16 Q1020 NOSIG
  • 240750Z 13004KT 070V240 6000 FEW008 19/16 Q1020 NOSIG
  • 240720Z 12004KT 090V200 6000 FEW008 18/15 Q1020 NOSIG

TAF TAF LIRF
Valide du 24 à 06h jusqu'au 25 à 12h UTC


240500Z 2406/2512 VRB05KT CAVOK
TEMPO 2406/2407 4000 BR
BECMG 2408/2410 22012KT
BECMG 2418/2420 VRB05KT
TEMPO 2500/2506 2000 BR
BECMG 2508/2510 22012KT
Pas de NOTAMs connus pour ce terrain.



MET'MAP, la Météo Aéronautique d'un coup d'oeil ! - Copyright ORBIFLY Décembre 2007 - Disclaimer

ORBIFLY MET'MAP TEAM :

Programmation & Développement : Alexandra Zaïnal
Conception & Développement : Baudouin d'Aumeries
Co-Programmation & Développement : Marc-Olivier Méhu
Soutien technique & logistique : Manuel Goepfert

Contact : metmap@orbifly.com




SOURCES & CREDITS :

   NOAA